Time;durP1;ratioP1;P1;durP2;ratioP2;P2;SDS_P1;SDS_P2;PMS_P1;PMS_P2;Temp;Humidity;BMP_temperature;BMP_pressure;BME280_temperature;BME280_humidity;BME280_pressure;Samples;Min_cycle;Max_cycle;Signal;HPM_P1;HPM_P2
2024/01/03 00:02:02;;;;;;;13.95;3.65;;;;;;;11.11;100.00;98535.63;5100668;28;20040;-67
2024/01/03 00:04:50;;;;;;;11.80;3.30;;;;;;;11.09;100.00;98568.69;5113097;28;20135;-68
2024/01/03 00:07:38;;;;;;;12.98;3.55;;;;;;;11.08;100.00;98570.56;5113850;28;20046;-67
2024/01/03 00:10:56;;;;;;;11.07;3.50;;;;;;;11.11;100.00;98546.53;5087000;28;20061;-67
2024/01/03 00:14:08;;;;;;;13.48;3.65;;;;;;;11.11;100.00;98579.22;5090696;28;20105;-67
2024/01/03 00:17:01;;;;;;;12.75;3.20;;;;;;;11.12;100.00;98568.00;5077629;28;20515;-67
2024/01/03 00:19:54;;;;;;;9.30;2.80;;;;;;;11.15;100.00;98582.91;5116365;27;20046;-67
2024/01/03 00:22:43;;;;;;;13.82;3.67;;;;;;;11.16;100.00;98547.16;5114189;27;20075;-68
2024/01/03 00:25:31;;;;;;;10.45;2.90;;;;;;;11.15;100.00;98604.72;5099289;28;20144;-67
2024/01/03 00:28:19;;;;;;;10.20;3.00;;;;;;;11.19;98.88;98611.91;5086869;27;20043;-67
2024/01/03 00:31:28;;;;;;;10.98;2.80;;;;;;;11.17;100.00;98610.66;5115242;27;20051;-68
2024/01/03 00:34:19;;;;;;;9.20;2.58;;;;;;;11.14;100.00;98603.13;5085492;28;20040;-67
2024/01/03 00:37:26;;;;;;;12.30;2.97;;;;;;;11.07;99.62;98626.22;5077219;28;20088;-67
2024/01/03 00:40:58;;;;;;;11.02;3.30;;;;;;;11.14;100.00;98603.91;5093293;27;20054;-67
2024/01/03 00:43:46;;;;;;;12.98;3.38;;;;;;;11.13;100.00;98623.31;5111805;27;20629;-66
2024/01/03 00:46:34;;;;;;;12.45;2.92;;;;;;;11.08;100.00;98616.91;5097898;28;20182;-67
2024/01/03 00:49:23;;;;;;;9.85;3.13;;;;;;;11.09;100.00;98604.91;5082481;28;20577;-67
2024/01/03 00:52:12;;;;;;;12.93;3.38;;;;;;;11.12;100.00;98627.19;5097447;28;20051;-67
2024/01/03 00:55:00;;;;;;;11.25;3.30;;;;;;;11.11;100.00;98628.28;5077477;28;20510;-67
2024/01/03 00:57:48;;;;;;;17.35;4.30;;;;;;;11.09;100.00;98650.44;5094203;28;20122;-67
2024/01/03 01:00:36;;;;;;;19.27;4.55;;;;;;;11.05;100.00;98628.47;5120802;27;20049;-67
2024/01/03 01:03:25;;;;;;;14.80;4.05;;;;;;;11.03;100.00;98643.53;5103913;27;20039;-67
2024/01/03 01:06:13;;;;;;;16.02;4.22;;;;;;;11.03;100.00;98646.28;5101389;27;20047;-67
2024/01/03 01:09:03;;;;;;;16.00;3.65;;;;;;;11.02;100.00;98648.19;5112590;27;20434;-67
2024/01/03 01:11:52;;;;;;;15.40;3.85;;;;;;;10.97;100.00;98648.38;5076737;28;20528;-67
2024/01/03 01:14:40;;;;;;;14.07;3.95;;;;;;;10.96;100.00;98641.31;5063492;28;20247;-67
2024/01/03 01:17:28;;;;;;;17.95;4.35;;;;;;;10.99;100.00;98645.31;5080235;28;20062;-67
2024/01/03 01:20:16;;;;;;;16.35;4.38;;;;;;;10.99;100.00;98662.47;5083062;28;20039;-67
2024/01/03 01:23:04;;;;;;;16.95;4.13;;;;;;;10.96;100.00;98657.66;5086250;28;20036;-66
2024/01/03 01:25:53;;;;;;;12.82;3.20;;;;;;;10.98;100.00;98671.75;5113127;28;20075;-66
2024/01/03 01:28:41;;;;;;;14.68;4.00;;;;;;;10.96;100.00;98676.72;5108474;28;20131;-66
2024/01/03 01:31:29;;;;;;;21.95;4.57;;;;;;;10.93;100.00;98671.94;5096723;27;20519;-67
2024/01/03 01:34:17;;;;;;;13.82;4.10;;;;;;;10.94;100.00;98681.69;5117655;27;20072;-66
2024/01/03 01:37:05;;;;;;;16.30;4.22;;;;;;;10.93;100.00;98671.13;5103772;28;20583;-67
2024/01/03 01:39:53;;;;;;;19.13;4.55;;;;;;;10.94;100.00;98689.88;5119272;27;20185;-67
2024/01/03 01:42:43;;;;;;;16.90;4.20;;;;;;;10.92;100.00;98681.25;5112128;27;20070;-68
2024/01/03 01:45:31;;;;;;;20.02;4.80;;;;;;;10.93;100.00;98699.19;5097427;28;20495;-68
2024/01/03 01:48:20;;;;;;;20.45;4.35;;;;;;;10.92;100.00;98658.63;5112571;28;20124;-67
2024/01/03 01:51:09;;;;;;;22.50;4.68;;;;;;;10.96;100.00;98697.72;5079140;28;20059;-68
2024/01/03 01:53:58;;;;;;;20.08;4.57;;;;;;;10.96;100.00;98705.91;5058797;28;20040;-68
2024/01/03 01:56:46;;;;;;;15.73;4.07;;;;;;;10.95;100.00;98715.22;5076991;28;20040;-68
2024/01/03 01:59:35;;;;;;;14.60;4.60;;;;;;;10.96;100.00;98714.88;5056188;28;20040;-68
2024/01/03 02:02:23;;;;;;;17.50;4.82;;;;;;;10.96;100.00;98711.34;5112132;28;20415;-68
2024/01/03 02:05:13;;;;;;;21.55;4.68;;;;;;;11.01;100.00;98692.91;5091687;28;20488;-67
2024/01/03 02:08:01;;;;;;;20.50;5.10;;;;;;;10.97;100.00;98719.22;5090586;28;20055;-68
2024/01/03 02:10:51;;;;;;;20.88;5.15;;;;;;;10.96;100.00;98720.31;5108256;28;20048;-66
2024/01/03 02:13:39;;;;;;;19.35;5.30;;;;;;;10.95;100.00;98721.47;5097172;28;20480;-67
2024/01/03 02:16:27;;;;;;;17.02;4.20;;;;;;;10.96;100.00;98738.59;5114066;28;20040;-66
2024/01/03 02:19:15;;;;;;;23.30;4.72;;;;;;;10.99;100.00;98736.06;5080307;28;20184;-66
2024/01/03 02:22:05;;;;;;;16.20;4.40;;;;;;;11.00;100.00;98737.63;5096188;28;20511;-67
2024/01/03 02:24:53;;;;;;;21.60;5.20;;;;;;;11.01;100.00;98741.97;5111521;28;20054;-66
2024/01/03 02:27:41;;;;;;;18.75;4.90;;;;;;;10.98;100.00;98739.88;5120968;28;20062;-66
2024/01/03 02:30:29;;;;;;;22.27;5.47;;;;;;;10.97;100.00;98748.41;5111593;28;20177;-66
2024/01/03 02:33:17;;;;;;;21.35;4.65;;;;;;;10.98;100.00;98742.59;5111203;28;20077;-67
2024/01/03 02:36:05;;;;;;;18.27;4.43;;;;;;;10.95;100.00;98740.53;5081280;28;20130;-67
2024/01/03 02:38:54;;;;;;;21.80;5.50;;;;;;;10.96;100.00;98744.84;5065701;28;20172;-66
2024/01/03 02:41:42;;;;;;;17.23;4.30;;;;;;;10.96;100.00;98749.50;5101073;28;20054;-67
2024/01/03 02:44:30;;;;;;;21.27;4.32;;;;;;;10.96;100.00;98750.28;5089875;27;20410;-65
2024/01/03 02:47:18;;;;;;;21.17;4.80;;;;;;;10.96;100.00;98742.13;5122304;27;20116;-65
2024/01/03 02:50:07;;;;;;;20.50;4.85;;;;;;;10.98;100.00;98733.63;5134812;28;20115;-65
2024/01/03 02:52:55;;;;;;;19.73;4.63;;;;;;;10.94;100.00;98741.63;5119505;28;20084;-65
2024/01/03 02:55:43;;;;;;;18.55;4.80;;;;;;;10.93;100.00;98742.78;5117529;28;20039;-66
2024/01/03 02:58:30;;;;;;;17.02;4.20;;;;;;;10.94;100.00;98736.19;5121119;28;20044;-65
2024/01/03 03:01:18;;;;;;;17.42;4.47;;;;;;;10.94;100.00;98757.19;5114130;28;20040;-64
2024/01/03 03:04:06;;;;;;;19.55;5.00;;;;;;;10.92;100.00;98749.34;5125481;27;20043;-67
2024/01/03 03:06:54;;;;;;;14.80;4.28;;;;;;;10.89;100.00;98747.25;5138016;27;20043;-66
2024/01/03 03:09:42;;;;;;;19.10;4.55;;;;;;;10.87;100.00;98749.50;5111196;28;20039;-66
2024/01/03 03:12:30;;;;;;;16.98;4.60;;;;;;;10.88;100.00;98759.28;5114749;28;20123;-66
2024/01/03 03:15:18;;;;;;;24.75;5.28;;;;;;;10.87;100.00;98763.13;5100633;28;20399;-67
2024/01/03 03:18:07;;;;;;;20.33;4.65;;;;;;;10.85;100.00;98770.84;5092743;28;20138;-67
2024/01/03 03:20:56;;;;;;;15.88;4.20;;;;;;;10.84;100.00;98770.00;5093048;28;20063;-67
2024/01/03 03:23:44;;;;;;;17.10;4.93;;;;;;;10.82;100.00;98771.44;5099795;28;20044;-67
2024/01/03 03:26:32;;;;;;;18.40;4.30;;;;;;;10.83;100.00;98767.63;5099397;28;20043;-67
2024/01/03 03:29:20;;;;;;;18.10;4.40;;;;;;;10.83;100.00;98770.34;5105666;28;20051;-66
2024/01/03 03:32:10;;;;;;;18.83;4.53;;;;;;;10.84;100.00;98769.22;5060229;28;20108;-68
2024/01/03 03:34:58;;;;;;;18.75;5.00;;;;;;;10.81;100.00;98769.88;5075850;28;20048;-67
2024/01/03 03:37:46;;;;;;;22.50;4.75;;;;;;;10.78;100.00;98767.78;5073438;28;20183;-67
2024/01/03 03:40:34;;;;;;;18.45;4.32;;;;;;;10.77;100.00;98766.16;5073271;28;20178;-68
2024/01/03 03:43:22;;;;;;;21.80;5.20;;;;;;;10.78;100.00;98771.31;5081508;28;20036;-68
2024/01/03 03:46:11;;;;;;;19.58;5.53;;;;;;;10.75;100.00;98773.84;5091176;28;20047;-67
2024/01/03 03:48:59;;;;;;;22.33;4.88;;;;;;;10.75;100.00;98776.56;5093504;28;20044;-68
2024/01/03 03:51:48;;;;;;;20.80;5.22;;;;;;;10.77;100.00;98774.34;5064991;28;20507;-67
2024/01/03 03:54:36;;;;;;;18.02;4.57;;;;;;;10.74;100.00;98770.34;5091621;28;20526;-67
2024/01/03 03:57:24;;;;;;;22.25;5.28;;;;;;;10.75;100.00;98776.56;5092031;28;20495;-66
2024/01/03 04:00:12;;;;;;;22.10;5.43;;;;;;;10.74;100.00;98777.72;5078662;28;20154;-68
2024/01/03 04:03:00;;;;;;;21.88;5.22;;;;;;;10.73;100.00;98790.53;5092375;28;20570;-67
2024/01/03 04:05:48;;;;;;;22.23;5.45;;;;;;;10.73;100.00;98787.00;5100979;28;20051;-68
2024/01/03 04:08:36;;;;;;;19.52;4.70;;;;;;;10.70;100.00;98788.41;5104135;28;20041;-68
2024/01/03 04:11:24;;;;;;;22.10;5.22;;;;;;;10.62;100.00;98790.03;5065634;28;20052;-66
2024/01/03 04:14:13;;;;;;;20.98;4.88;;;;;;;10.56;100.00;98788.59;5073684;28;20047;-67
2024/01/03 04:17:01;;;;;;;21.30;5.30;;;;;;;10.53;100.00;98810.19;5076041;28;20040;-66
2024/01/03 04:19:49;;;;;;;21.77;4.90;;;;;;;10.50;100.00;98792.56;5097753;28;20047;-66
2024/01/03 04:22:41;;;;;;;22.13;4.93;;;;;;;10.48;100.00;98777.66;5085184;28;20048;-66
2024/01/03 04:25:29;;;;;;;19.67;4.50;;;;;;;10.40;100.00;98790.94;5099834;28;20075;-68
2024/01/03 04:28:17;;;;;;;15.02;4.07;;;;;;;10.37;100.00;98799.75;5114422;28;20051;-66
2024/01/03 04:31:04;;;;;;;19.60;5.10;;;;;;;10.35;100.00;98798.47;5113872;27;20138;-67
2024/01/03 04:33:52;;;;;;;15.82;4.53;;;;;;;10.34;100.00;98797.66;5098004;28;20050;-67
2024/01/03 04:36:41;;;;;;;17.08;4.55;;;;;;;10.30;100.00;98798.63;5111914;27;20031;-68
2024/01/03 04:39:28;;;;;;;18.17;4.90;;;;;;;10.30;100.00;98804.06;5113648;28;20130;-67
2024/01/03 04:42:17;;;;;;;20.25;4.65;;;;;;;10.29;100.00;98797.78;5113623;28;20054;-67
2024/01/03 04:45:05;;;;;;;19.67;4.85;;;;;;;10.32;100.00;98796.34;5099574;27;20474;-68
2024/01/03 04:47:53;;;;;;;17.83;4.13;;;;;;;10.33;100.00;98792.53;5101718;27;20141;-66
2024/01/03 04:50:41;;;;;;;12.88;4.07;;;;;;;10.35;100.00;98795.75;5092038;28;20126;-67
2024/01/03 04:53:31;;;;;;;15.93;4.00;;;;;;;10.38;100.00;98797.81;5092340;28;20204;-67
2024/01/03 04:56:21;;;;;;;16.63;4.05;;;;;;;10.39;100.00;98797.53;5071199;28;20048;-68
2024/01/03 04:59:09;;;;;;;12.90;4.15;;;;;;;10.39;100.00;98799.41;5112665;28;20044;-68
2024/01/03 05:01:57;;;;;;;16.55;3.60;;;;;;;10.42;100.00;98807.78;5098424;28;20047;-66
2024/01/03 05:04:45;;;;;;;16.67;4.15;;;;;;;10.41;100.00;98805.34;5084431;28;20077;-67
2024/01/03 05:07:34;;;;;;;15.57;3.75;;;;;;;10.39;100.00;98802.97;5110334;28;20069;-68
2024/01/03 05:10:22;;;;;;;13.40;3.63;;;;;;;10.37;100.00;98812.56;5097745;28;20558;-67
2024/01/03 05:13:10;;;;;;;12.77;3.50;;;;;;;10.36;100.00;98805.50;5112588;28;20098;-67
2024/01/03 05:15:58;;;;;;;12.30;3.53;;;;;;;10.36;100.00;98816.38;5096593;28;20043;-67
2024/01/03 05:18:46;;;;;;;13.15;3.28;;;;;;;10.40;100.00;98801.84;5109357;27;20059;-67
2024/01/03 05:21:34;;;;;;;10.70;3.22;;;;;;;10.38;100.00;98806.78;5117429;27;20112;-67
2024/01/03 05:24:22;;;;;;;10.70;3.08;;;;;;;10.38;100.00;98812.22;5133009;27;20047;-66
2024/01/03 05:27:10;;;;;;;10.95;3.22;;;;;;;10.36;100.00;98813.66;5073643;28;20071;-67
2024/01/03 05:29:58;;;;;;;10.00;2.95;;;;;;;10.32;100.00;98820.84;5094371;28;20492;-67
2024/01/03 05:32:46;;;;;;;10.68;3.15;;;;;;;10.28;100.00;98819.88;5097814;28;20040;-66
2024/01/03 05:35:35;;;;;;;15.55;3.30;;;;;;;10.28;100.00;98817.97;5111147;28;20036;-66
2024/01/03 05:38:23;;;;;;;9.23;2.70;;;;;;;10.28;100.00;98811.72;5111381;28;20044;-66
2024/01/03 05:41:11;;;;;;;6.85;2.85;;;;;;;10.26;100.00;98819.38;5109658;28;20039;-66
2024/01/03 05:43:59;;;;;;;10.65;3.03;;;;;;;10.23;100.00;98818.88;5097295;28;20486;-67
2024/01/03 05:46:47;;;;;;;9.88;2.65;;;;;;;10.21;100.00;98820.31;5090929;28;20492;-67
2024/01/03 05:49:35;;;;;;;10.40;3.03;;;;;;;10.21;100.00;98817.59;5103436;28;20546;-65
2024/01/03 05:52:23;;;;;;;8.77;2.60;;;;;;;10.22;100.00;98824.63;5113211;28;20051;-67
2024/01/03 05:55:11;;;;;;;10.02;2.90;;;;;;;10.22;100.00;98825.47;5111961;28;20040;-68
2024/01/03 05:57:59;;;;;;;9.10;2.80;;;;;;;10.22;100.00;98822.75;5095529;28;20052;-67
2024/01/03 06:00:47;;;;;;;10.02;2.80;;;;;;;10.18;100.00;98829.91;5084036;28;20071;-67
2024/01/03 06:03:35;;;;;;;9.73;2.88;;;;;;;10.10;100.00;98819.00;5098300;28;20048;-66
2024/01/03 06:06:23;;;;;;;8.63;2.85;;;;;;;10.05;100.00;98819.94;5084213;28;20055;-67
2024/01/03 06:09:13;;;;;;;9.95;2.70;;;;;;;9.98;100.00;98822.28;5089838;28;20058;-67
2024/01/03 06:12:01;;;;;;;9.05;2.85;;;;;;;9.94;100.00;98826.78;5122718;28;20050;-66
2024/01/03 06:14:49;;;;;;;5.90;2.30;;;;;;;10.09;100.00;98829.06;5114950;28;20043;-67
2024/01/03 06:17:37;;;;;;;7.13;2.25;;;;;;;10.02;100.00;98826.00;5115472;27;20051;-67
2024/01/03 06:20:25;;;;;;;6.53;2.45;;;;;;;10.02;100.00;98826.00;5114714;28;20580;-67
2024/01/03 06:23:13;;;;;;;7.53;2.38;;;;;;;10.02;100.00;98829.53;5116167;28;20040;-67
2024/01/03 06:26:01;;;;;;;9.98;2.67;;;;;;;10.10;100.00;98838.88;5115346;28;20047;-67
2024/01/03 06:28:49;;;;;;;9.63;2.67;;;;;;;10.06;100.00;98842.53;5101056;28;20131;-67
2024/01/03 06:31:37;;;;;;;13.00;3.28;;;;;;;10.08;100.00;98846.53;5068473;28;20185;-67
2024/01/03 06:34:25;;;;;;;9.80;2.47;;;;;;;10.07;100.00;98839.47;5095255;28;20056;-67
2024/01/03 06:37:13;;;;;;;8.70;2.47;;;;;;;10.03;100.00;98836.59;5067682;28;20518;-66
2024/01/03 06:40:01;;;;;;;10.32;3.08;;;;;;;9.88;100.00;98852.50;5095831;28;20047;-67
2024/01/03 06:42:49;;;;;;;9.60;2.70;;;;;;;9.76;100.00;98845.69;5115612;28;20089;-66
2024/01/03 06:45:37;;;;;;;10.60;3.33;;;;;;;9.70;100.00;98846.97;4407828;28;9999954;-68
2024/01/03 06:48:27;;;;;;;13.05;3.33;;;;;;;9.67;100.00;98852.19;5081011;28;20048;-67
2024/01/03 06:51:20;;;;;;;7.97;2.63;;;;;;;9.62;100.00;98852.34;5096571;28;20593;-63
2024/01/03 06:54:08;;;;;;;11.50;2.97;;;;;;;9.65;100.00;98843.56;5078356;28;20545;-66
2024/01/03 06:56:56;;;;;;;9.85;2.78;;;;;;;9.66;100.00;98853.31;5094642;28;20526;-66
2024/01/03 06:59:44;;;;;;;8.10;2.60;;;;;;;9.68;100.00;98857.34;5097231;28;20055;-66
2024/01/03 07:02:32;;;;;;;7.32;2.42;;;;;;;9.62;100.00;98855.88;5112549;28;20058;-67
2024/01/03 07:05:20;;;;;;;6.88;2.25;;;;;;;9.63;100.00;98868.34;5102367;28;20051;-65
2024/01/03 07:08:09;;;;;;;4.78;2.00;;;;;;;9.65;100.00;98857.97;5103045;28;20060;-67
2024/01/03 07:10:57;;;;;;;6.07;2.33;;;;;;;9.60;100.00;98844.50;5079492;28;20044;-67
2024/01/03 07:13:46;;;;;;;5.43;2.00;;;;;;;9.64;100.00;98852.84;5102873;28;20629;-66
2024/01/03 07:16:34;;;;;;;5.25;1.77;;;;;;;9.57;100.00;98864.13;5096596;28;20044;-68
2024/01/03 07:19:22;;;;;;;4.88;2.13;;;;;;;9.52;100.00;98861.53;5104000;27;20567;-67
2024/01/03 07:22:10;;;;;;;4.10;2.13;;;;;;;9.48;100.00;98868.72;5106658;27;20036;-68
2024/01/03 07:24:58;;;;;;;4.65;1.80;;;;;;;9.60;100.00;98877.94;5123137;27;20040;-69
2024/01/03 07:27:47;;;;;;;4.93;1.67;;;;;;;9.49;100.00;98892.06;5109301;28;20133;-66
2024/01/03 07:30:35;;;;;;;5.20;1.80;;;;;;;9.42;100.00;98891.69;5109691;28;20515;-66
2024/01/03 07:33:23;;;;;;;3.65;1.60;;;;;;;9.37;100.00;98885.25;5096311;28;20100;-68
2024/01/03 07:36:11;;;;;;;5.97;1.92;;;;;;;9.37;100.00;98882.53;5069074;28;20075;-66
2024/01/03 07:39:00;;;;;;;1.95;1.23;;;;;;;9.36;100.00;98891.81;5094245;27;20056;-67
2024/01/03 07:41:49;;;;;;;4.13;1.27;;;;;;;9.39;100.00;98887.69;5116884;27;20050;-67
2024/01/03 07:44:41;;;;;;;4.68;1.45;;;;;;;9.38;100.00;98889.59;5124763;27;20117;-67
2024/01/03 07:47:29;;;;;;;4.45;1.80;;;;;;;9.38;100.00;98889.59;5076101;28;20068;-67
2024/01/03 07:50:18;;;;;;;3.67;1.65;;;;;;;9.42;100.00;98895.22;5094779;28;20043;-67
2024/01/03 07:53:07;;;;;;;2.67;1.70;;;;;;;9.42;100.00;98900.66;5108212;28;20538;-67
2024/01/03 07:55:55;;;;;;;4.35;1.63;;;;;;;9.41;100.00;98907.22;5082865;28;20387;-67
2024/01/03 07:58:43;;;;;;;3.00;1.42;;;;;;;9.39;100.00;98906.72;5078126;27;20082;-66
2024/01/03 08:01:31;;;;;;;5.18;1.60;;;;;;;9.35;100.00;98905.72;5095017;28;20047;-66
2024/01/03 08:04:19;;;;;;;4.20;1.40;;;;;;;9.41;100.00;98911.84;5109601;28;20051;-66
2024/01/03 08:07:07;;;;;;;3.00;1.67;;;;;;;9.44;100.00;98919.38;5090021;28;20048;-67
2024/01/03 08:09:55;;;;;;;2.17;1.50;;;;;;;9.43;100.00;98924.03;5092436;28;20058;-68
2024/01/03 08:12:43;;;;;;;4.28;2.05;;;;;;;9.41;100.00;98920.00;5090447;28;20118;-66
2024/01/03 08:15:31;;;;;;;3.20;1.65;;;;;;;9.45;100.00;98915.53;5109682;28;20474;-68
2024/01/03 08:18:19;;;;;;;5.32;1.75;;;;;;;9.44;100.00;98916.66;5088139;28;20617;-66
2024/01/03 08:21:07;;;;;;;6.15;2.28;;;;;;;9.47;100.00;98916.03;5092798;28;20157;-68
2024/01/03 08:23:55;;;;;;;4.32;1.88;;;;;;;9.45;100.00;98915.53;5108090;28;20493;-67
2024/01/03 08:26:46;;;;;;;7.35;2.05;;;;;;;9.39;100.00;98918.38;4743367;28;9999776;-67
2024/01/03 08:29:37;;;;;;;6.82;2.10;;;;;;;9.39;100.00;98912.94;5107917;27;20348;-67
2024/01/03 08:32:25;;;;;;;7.30;2.38;;;;;;;9.47;100.00;98918.75;5073700;28;20044;-66
2024/01/03 08:35:14;;;;;;;8.02;2.33;;;;;;;9.47;100.00;98924.19;5094099;28;20063;-67
2024/01/03 08:38:02;;;;;;;8.70;2.45;;;;;;;9.52;100.00;98926.78;5096920;28;20137;-67
2024/01/03 08:40:50;;;;;;;9.93;2.60;;;;;;;9.48;100.00;98923.09;5076388;28;20035;-65
2024/01/03 08:43:38;;;;;;;10.32;3.20;;;;;;;9.49;100.00;98921.97;5097827;28;20051;-67
2024/01/03 08:46:29;;;;;;;8.57;2.88;;;;;;;9.51;100.00;98927.91;5112683;28;20499;-67
2024/01/03 08:49:17;;;;;;;10.05;2.80;;;;;;;9.48;100.00;98942.13;5085053;28;20047;-68
2024/01/03 08:52:05;;;;;;;12.38;2.97;;;;;;;9.46;100.00;98933.47;5097814;28;20055;-67
2024/01/03 08:54:53;;;;;;;12.27;3.10;;;;;;;9.45;100.00;98931.84;5098302;28;20044;-67
2024/01/03 08:57:41;;;;;;;14.45;4.13;;;;;;;9.45;100.00;98937.28;5098073;28;20054;-67
2024/01/03 09:00:29;;;;;;;11.80;3.25;;;;;;;9.45;100.00;98938.09;5094782;28;20035;-67
2024/01/03 09:03:17;;;;;;;18.17;4.85;;;;;;;9.51;100.00;98941.50;5112060;28;20410;-67
2024/01/03 09:06:06;;;;;;;18.83;4.30;;;;;;;9.57;100.00;98945.69;5092954;28;20147;-66
2024/01/03 09:08:55;;;;;;;20.73;5.15;;;;;;;9.64;100.00;98935.19;5099087;28;20610;-67
2024/01/03 09:11:43;;;;;;;16.20;4.32;;;;;;;9.68;100.00;98941.63;5114893;28;20507;-67
2024/01/03 09:14:31;;;;;;;13.73;4.10;;;;;;;9.63;100.00;98947.19;5113360;28;20051;-68
2024/01/03 09:17:19;;;;;;;17.27;4.45;;;;;;;9.63;100.00;98955.34;5112249;28;20044;-67
2024/01/03 09:20:08;;;;;;;17.50;4.45;;;;;;;9.63;100.00;98968.16;5091836;28;20048;-67
2024/01/03 09:22:58;;;;;;;17.45;4.55;;;;;;;9.59;100.00;98954.34;5091950;28;20078;-68
2024/01/03 09:25:46;;;;;;;22.35;4.60;;;;;;;9.62;100.00;98956.47;5092850;28;20122;-67
2024/01/03 09:28:37;;;;;;;15.60;4.10;;;;;;;9.59;100.00;98948.91;5078133;28;20134;-68
2024/01/03 09:31:25;;;;;;;18.80;5.13;;;;;;;9.63;100.00;98958.09;5107914;28;20035;-68
2024/01/03 09:34:13;;;;;;;20.67;4.80;;;;;;;9.65;100.00;98963.22;5083049;28;20040;-68
2024/01/03 09:37:01;;;;;;;24.05;4.80;;;;;;;9.63;100.00;98966.25;5063774;28;20047;-68
2024/01/03 09:39:49;;;;;;;16.70;5.00;;;;;;;9.68;100.00;98968.03;5078911;28;20051;-68
2024/01/03 09:42:38;;;;;;;20.65;5.20;;;;;;;9.66;100.00;98975.69;5090122;28;20162;-68
2024/01/03 09:45:27;;;;;;;19.77;4.78;;;;;;;9.67;100.00;98971.84;5107446;28;20051;-67
2024/01/03 09:48:15;;;;;;;20.70;4.68;;;;;;;9.66;100.00;98965.63;5098245;28;20050;-68
2024/01/03 09:51:04;;;;;;;21.60;5.20;;;;;;;9.70;100.00;98974.78;5112847;27;20177;-67
2024/01/03 09:53:54;;;;;;;17.50;4.93;;;;;;;9.75;100.00;98979.28;4375967;28;10000557;-68
2024/01/03 09:56:43;;;;;;;19.17;5.30;;;;;;;9.79;100.00;98972.94;5082392;28;20058;-68
2024/01/03 09:59:32;;;;;;;23.75;5.93;;;;;;;9.81;100.00;98978.88;5066238;28;20048;-68
2024/01/03 10:02:27;;;;;;;26.27;5.45;;;;;;;9.82;100.00;98968.78;5092627;28;20522;-70
2024/01/03 10:05:22;;;;;;;21.13;5.38;;;;;;;9.86;100.00;98979.84;5080435;28;20399;-69
2024/01/03 10:08:17;;;;;;;24.15;5.32;;;;;;;9.83;100.00;98973.09;5058250;28;20088;-69
2024/01/03 10:11:20;;;;;;;21.98;4.50;;;;;;;9.79;100.00;98975.66;5074977;28;20044;-69
2024/01/03 10:14:16;;;;;;;21.13;4.70;;;;;;;9.78;100.00;98979.47;5097937;28;20566;-67
2024/01/03 10:17:14;;;;;;;22.65;4.88;;;;;;;9.79;100.00;98991.19;5093901;28;20074;-68
2024/01/03 10:20:22;;;;;;;18.65;4.80;;;;;;;9.78;100.00;98990.34;5089683;28;20066;-67
2024/01/03 10:23:12;;;;;;;26.27;6.28;;;;;;;9.74;100.00;99000.25;5082484;28;20051;-69
2024/01/03 10:26:00;;;;;;;25.67;6.25;;;;;;;9.73;100.00;98993.19;5085416;28;20151;-69
2024/01/03 10:28:48;;;;;;;23.98;5.72;;;;;;;9.73;100.00;98990.47;5075424;28;20052;-68
2024/01/03 10:31:36;;;;;;;22.52;6.35;;;;;;;9.74;100.00;99000.25;5076973;28;20069;-69
2024/01/03 10:34:24;;;;;;;24.08;5.78;;;;;;;9.79;100.00;98991.97;5089936;28;20515;-68
2024/01/03 10:37:14;;;;;;;21.80;5.53;;;;;;;9.84;100.00;98995.66;5075101;28;20048;-69
2024/01/03 10:40:02;;;;;;;23.17;5.90;;;;;;;9.84;100.00;98998.38;5074041;28;20491;-69
2024/01/03 10:42:50;;;;;;;22.48;5.28;;;;;;;9.85;100.00;99005.44;5083914;28;20059;-67
2024/01/03 10:45:38;;;;;;;28.20;6.50;;;;;;;9.87;100.00;99003.22;5085589;28;20048;-68
2024/01/03 10:48:26;;;;;;;28.95;6.95;;;;;;;9.86;100.00;99002.44;5083731;28;20058;-69
2024/01/03 10:51:15;;;;;;;29.42;7.25;;;;;;;9.85;100.00;99016.31;5077851;28;20040;-68
2024/01/03 10:54:03;;;;;;;28.08;7.00;;;;;;;9.84;100.00;99006.53;5060286;28;20050;-68
2024/01/03 10:56:51;;;;;;;25.88;6.55;;;;;;;9.87;100.00;99008.66;5092509;28;20040;-67
2024/01/03 11:00:14;;;;;;;26.75;5.78;;;;;;;9.87;100.00;99014.13;5085573;27;20047;-67
2024/01/03 11:03:26;;;;;;;28.33;6.25;;;;;;;9.91;100.00;99015.09;5106215;27;20495;-68
2024/01/03 11:06:24;;;;;;;26.77;6.72;;;;;;;9.93;100.00;98996.53;5095572;27;20044;-67
2024/01/03 11:09:13;;;;;;;27.45;6.75;;;;;;;9.96;100.00;99009.53;5086548;27;20048;-67
2024/01/03 11:12:10;;;;;;;22.02;5.00;;;;;;;10.01;100.00;98995.81;5107958;27;20043;-68
2024/01/03 11:15:25;;;;;;;23.27;5.40;;;;;;;10.09;100.00;98995.06;5105468;27;20044;-67
2024/01/03 11:18:51;;;;;;;20.60;5.90;;;;;;;10.08;100.00;99000.81;5115935;27;20475;-69
2024/01/03 11:21:42;;;;;;;22.15;5.05;;;;;;;10.07;100.00;99002.72;5097117;28;20067;-68
2024/01/03 11:24:30;;;;;;;22.50;5.97;;;;;;;10.05;100.00;99004.94;5111420;28;20074;-68
2024/01/03 11:27:19;;;;;;;22.90;5.10;;;;;;;10.09;100.00;98996.97;5129410;27;20054;-68
2024/01/03 11:30:50;;;;;;;27.02;6.70;;;;;;;10.14;100.00;99008.53;5089546;28;20051;-67
2024/01/03 11:33:43;;;;;;;24.30;6.53;;;;;;;10.16;100.00;99000.88;5100677;27;20127;-69
2024/01/03 11:36:49;;;;;;;24.15;6.10;;;;;;;10.21;100.00;99002.66;5103124;28;20051;-69
2024/01/03 11:39:43;;;;;;;19.02;5.15;;;;;;;10.12;100.00;99004.53;5095353;28;20056;-68
2024/01/03 11:42:38;;;;;;;19.20;5.28;;;;;;;10.07;100.00;98991.84;5085672;28;20039;-69
2024/01/03 11:45:27;;;;;;;;;;;;;;;10.07;100.00;98996.50;5096279;28;20123;-68
2024/01/03 11:48:21;;;;;;;20.13;5.65;;;;;;;9.99;100.00;99001.56;5091788;28;19931;-69
2024/01/03 11:51:25;;;;;;;22.33;6.32;;;;;;;9.98;100.00;98990.97;5094289;27;20051;-69
2024/01/03 11:54:14;;;;;;;20.17;5.65;;;;;;;10.02;100.00;98986.53;5063224;27;20051;-68
2024/01/03 11:57:08;;;;;;;17.88;4.35;;;;;;;9.96;100.00;99002.19;5111800;28;20040;-68
2024/01/03 12:00:00;;;;;;;13.38;3.90;;;;;;;9.94;100.00;98988.06;5086314;28;20044;-68
2024/01/03 12:02:54;;;;;;;14.88;3.78;;;;;;;9.96;100.00;98985.06;5115838;28;20050;-68
2024/01/03 12:05:45;;;;;;;10.10;3.00;;;;;;;9.88;100.00;98993.94;5092458;28;20135;-68
2024/01/03 12:08:34;;;;;;;12.52;2.88;;;;;;;9.82;100.00;99004.94;5095662;28;20044;-68
2024/01/03 12:11:22;;;;;;;14.82;2.70;;;;;;;9.75;100.00;98990.97;5093336;28;20044;-69
2024/01/03 12:14:10;;;;;;;6.00;1.80;;;;;;;9.69;100.00;98994.09;5078738;28;20040;-68
2024/01/03 12:16:58;;;;;;;6.85;2.63;;;;;;;9.67;100.00;98989.00;5110985;27;20418;-68
2024/01/03 12:19:46;;;;;;;11.68;2.80;;;;;;;9.62;100.00;98983.69;5107436;28;20048;-68
2024/01/03 12:22:38;;;;;;;6.47;2.40;;;;;;;9.55;100.00;98977.84;5093220;28;20474;-68
2024/01/03 12:25:26;;;;;;;7.90;2.40;;;;;;;9.51;100.00;98980.38;5094793;28;20412;-68
2024/01/03 12:28:19;;;;;;;9.02;2.75;;;;;;;9.50;100.00;98973.34;5095102;28;20121;-68
2024/01/03 12:31:17;;;;;;;9.00;2.50;;;;;;;9.53;100.00;98967.28;5098851;28;20065;-68
2024/01/03 12:34:06;;;;;;;7.70;2.60;;;;;;;9.60;100.00;98983.16;5098742;27;20054;-68
2024/01/03 12:36:54;;;;;;;6.47;2.50;;;;;;;9.70;100.00;98966.63;5113274;27;20512;-67
2024/01/03 12:39:42;;;;;;;7.20;2.50;;;;;;;9.74;100.00;98962.19;5133889;27;20058;-67
2024/01/03 12:42:30;;;;;;;8.75;2.63;;;;;;;9.77;100.00;98967.00;5133698;27;20051;-68
2024/01/03 12:45:29;;;;;;;10.80;3.20;;;;;;;9.85;100.00;98953.75;5054757;28;20085;-68
2024/01/03 12:48:17;;;;;;;9.35;3.22;;;;;;;9.93;100.00;98961.16;5113265;27;20055;-68
2024/01/03 12:51:06;;;;;;;9.73;3.20;;;;;;;9.88;100.00;98947.69;5099100;28;20071;-68
2024/01/03 12:53:54;;;;;;;7.15;2.65;;;;;;;9.86;100.00;98960.81;5114654;28;20130;-68
2024/01/03 12:56:42;;;;;;;12.70;3.60;;;;;;;9.90;100.00;98950.91;5114261;27;20039;-70
2024/01/03 12:59:30;;;;;;;7.57;2.70;;;;;;;9.79;100.00;98943.00;5063444;27;20035;-68
2024/01/03 13:02:19;;;;;;;8.10;2.45;;;;;;;9.76;100.00;98942.81;5102493;27;20051;-68
2024/01/03 13:05:07;;;;;;;8.20;2.58;;;;;;;9.78;100.00;98941.38;5079314;28;20048;-68
2024/01/03 13:07:55;;;;;;;14.20;4.00;;;;;;;9.81;100.00;98954.38;5104171;28;20526;-69
2024/01/03 13:10:43;;;;;;;7.07;2.50;;;;;;;9.78;100.00;98944.09;5077434;28;20089;-68